createdAt,value
2017-03-24T00:00:02.888Z,77.15
2017-03-24T00:01:02.922Z,77.43
2017-03-24T00:02:02.958Z,77.34
2017-03-24T00:03:03.296Z,77.56
2017-03-24T00:04:03.027Z,77.62
2017-03-24T00:05:03.066Z,77.66
2017-03-24T00:06:03.096Z,77.28
2017-03-24T00:07:03.128Z,77.62
2017-03-24T00:08:03.169Z,77.34
2017-03-24T00:09:03.204Z,77.43
2017-03-24T00:10:03.240Z,77.34
2017-03-24T00:11:03.269Z,77.34
2017-03-24T00:12:03.313Z,77.47
2017-03-24T00:13:03.345Z,77.47
2017-03-24T00:14:03.378Z,77.34
2017-03-24T00:15:03.413Z,76.96
2017-03-24T00:16:03.446Z,77.47
2017-03-24T00:17:03.482Z,77.56
2017-03-24T00:18:03.517Z,77.34
2017-03-24T00:19:03.548Z,77.43
2017-03-24T00:20:03.591Z,77.37
2017-03-24T00:21:03.624Z,77.05
2017-03-24T00:22:03.655Z,76.76
2017-03-24T00:23:03.689Z,77.24
2017-03-24T00:24:03.723Z,77.15
2017-03-24T00:25:04.065Z,77.05
2017-03-24T00:26:03.792Z,77.28
2017-03-24T00:27:03.839Z,76.86
2017-03-24T00:28:03.865Z,77.05
2017-03-24T00:29:03.902Z,77.28
2017-03-24T00:30:03.933Z,76.96
2017-03-24T00:31:03.967Z,77.24
2017-03-24T00:32:04.001Z,77.34
2017-03-24T00:33:04.037Z,77.43
2017-03-24T00:34:04.073Z,76.96
2017-03-24T00:35:04.109Z,77.24
2017-03-24T00:36:04.143Z,77.24
2017-03-24T00:37:04.175Z,77.34
2017-03-24T00:38:04.214Z,77.15
2017-03-24T00:39:04.257Z,77.24
2017-03-24T00:40:04.279Z,77.05
2017-03-24T00:41:04.314Z,77.81
2017-03-24T00:42:04.350Z,77.81
2017-03-24T00:43:04.387Z,77.24
2017-03-24T00:44:04.420Z,77.05
2017-03-24T00:45:04.454Z,77.05
2017-03-24T00:46:04.487Z,76.96
2017-03-24T00:47:04.532Z,77.53
2017-03-24T00:48:04.563Z,77.15
2017-03-24T00:49:04.595Z,77.24
2017-03-24T00:50:04.630Z,77.05
2017-03-24T00:51:04.667Z,77.72
2017-03-24T00:52:04.699Z,77.15
2017-03-24T00:53:04.736Z,77.62
2017-03-24T00:54:04.768Z,76.96
2017-03-24T00:55:04.807Z,77.62
2017-03-24T00:56:04.839Z,77.53
2017-03-24T00:57:04.873Z,77.62
2017-03-24T00:58:04.911Z,77.72
2017-03-24T00:59:04.938Z,77.72
2017-03-24T01:00:04.979Z,77.53
2017-03-24T01:01:05.008Z,77.43
2017-03-24T01:02:05.048Z,77.34
2017-03-24T01:03:05.085Z,77.62
2017-03-24T01:04:05.115Z,77.62
2017-03-24T01:05:05.149Z,77.34
2017-03-24T01:06:05.185Z,77.34
2017-03-24T01:07:05.223Z,77.53
2017-03-24T01:08:05.252Z,77.53
2017-03-24T01:09:05.289Z,77.15
2017-03-24T01:10:05.323Z,77.72
2017-03-24T01:11:05.361Z,77.81
2017-03-24T01:12:05.402Z,77.91
2017-03-24T01:13:05.429Z,77.62
2017-03-24T01:14:05.466Z,77.81
2017-03-24T01:15:05.496Z,77.81
2017-03-24T01:16:05.533Z,77.72
2017-03-24T01:17:05.872Z,77.72
2017-03-24T01:18:05.601Z,77.62
2017-03-24T01:19:05.941Z,78.1
2017-03-24T01:20:05.677Z,77.62
2017-03-24T01:21:05.705Z,77.43
2017-03-24T01:22:05.739Z,77.53
2017-03-24T01:23:05.778Z,78.19
2017-03-24T01:24:05.809Z,78
2017-03-24T01:25:05.843Z,78
2017-03-24T01:26:06.182Z,77.62
2017-03-24T01:27:05.912Z,77.62
2017-03-24T01:28:05.948Z,77.81
2017-03-24T01:29:06.288Z,77.72
2017-03-24T01:30:06.016Z,77.62
2017-03-24T01:31:06.055Z,78
2017-03-24T01:32:06.087Z,77.91
2017-03-24T01:33:06.424Z,77.72
2017-03-24T01:34:06.200Z,78
2017-03-24T01:35:06.192Z,77.72
2017-03-24T01:36:06.223Z,77.62
2017-03-24T01:37:06.259Z,78.19
2017-03-24T01:38:06.597Z,77.81
2017-03-24T01:39:06.334Z,78
2017-03-24T01:40:06.363Z,77.91
2017-03-24T01:41:06.400Z,78
2017-03-24T01:42:06.432Z,77.72
2017-03-24T01:43:06.467Z,77.72
2017-03-24T01:44:06.503Z,77.81
2017-03-24T01:45:06.539Z,77.72
2017-03-24T01:46:06.573Z,77.91
2017-03-24T01:47:06.615Z,78.1
2017-03-24T01:48:06.640Z,77.91
2017-03-24T01:49:06.677Z,78
2017-03-24T01:50:06.709Z,77.91
2017-03-24T01:51:06.750Z,78
2017-03-24T01:52:06.782Z,77.81
2017-03-24T01:53:06.819Z,78
2017-03-24T01:54:06.911Z,77.81
2017-03-24T01:55:06.884Z,78
2017-03-24T01:56:06.924Z,78
2017-03-24T01:57:06.955Z,77.72
2017-03-24T01:58:07.286Z,77.81
2017-03-24T01:59:07.030Z,78
2017-03-24T02:00:07.055Z,78
2017-03-24T02:01:07.088Z,77.91
2017-03-24T02:02:07.125Z,78
2017-03-24T02:03:07.464Z,78
2017-03-24T02:04:07.195Z,77.81
2017-03-24T02:05:07.231Z,77.91
2017-03-24T02:06:07.270Z,78
2017-03-24T02:07:07.301Z,78
2017-03-24T02:08:07.335Z,78
2017-03-24T02:09:07.669Z,78.1
2017-03-24T02:10:07.405Z,78
2017-03-24T02:11:07.437Z,77.91
2017-03-24T02:12:07.471Z,77.91
2017-03-24T02:13:07.503Z,78
2017-03-24T02:14:07.539Z,78.19
2017-03-24T02:15:07.573Z,78.57
2017-03-24T02:16:07.613Z,78.48
2017-03-24T02:17:07.644Z,78.48
2017-03-24T02:18:07.678Z,78.57
2017-03-24T02:19:07.715Z,78.29
2017-03-24T02:20:07.747Z,78.1
2017-03-24T02:21:07.781Z,78.77
2017-03-24T02:22:07.821Z,78
2017-03-24T02:23:07.852Z,78.67
2017-03-24T02:24:08.193Z,78.38
2017-03-24T02:25:07.923Z,78.48
2017-03-24T02:26:07.956Z,78.67
2017-03-24T02:27:07.988Z,78.67
2017-03-24T02:28:08.026Z,78.38
2017-03-24T02:29:08.061Z,78.48
2017-03-24T02:30:08.095Z,78.67
2017-03-24T02:31:08.130Z,78.1
2017-03-24T02:32:08.162Z,78.29
2017-03-24T02:33:08.201Z,78.19
2017-03-24T02:34:08.234Z,78.29
2017-03-24T02:35:08.277Z,78.48
2017-03-24T02:36:08.300Z,78.48
2017-03-24T02:37:08.339Z,78.67
2017-03-24T02:38:08.369Z,78.67
2017-03-24T02:39:08.409Z,78.48
2017-03-24T02:40:08.437Z,78.48
2017-03-24T02:41:08.475Z,78.19
2017-03-24T02:42:08.814Z,78.67
2017-03-24T02:43:08.541Z,78.38
2017-03-24T02:44:08.578Z,78.38
2017-03-24T02:45:08.612Z,78.38
2017-03-24T02:46:08.643Z,78.48
2017-03-24T02:47:08.683Z,78.38
2017-03-24T02:48:08.713Z,78.48
2017-03-24T02:49:08.751Z,78.67
2017-03-24T02:50:08.788Z,78.48
2017-03-24T02:51:08.820Z,78.38
2017-03-24T02:52:09.153Z,78.29
2017-03-24T02:53:08.885Z,78.19
2017-03-24T02:54:08.934Z,78.44
2017-03-24T02:55:08.954Z,78.38
2017-03-24T02:56:08.987Z,78.63
2017-03-24T02:57:09.027Z,78.06
2017-03-24T02:58:09.363Z,77.97
2017-03-24T02:59:09.093Z,78.19
2017-03-24T03:00:09.128Z,78.16
2017-03-24T03:01:09.159Z,78.44
2017-03-24T03:02:09.199Z,78.06
2017-03-24T03:03:09.231Z,77.97
2017-03-24T03:04:09.486Z,77.97
2017-03-24T03:05:09.301Z,77.87
2017-03-24T03:06:09.335Z,77.77
2017-03-24T03:07:09.369Z,77.97
2017-03-24T03:08:09.403Z,77.97
2017-03-24T03:09:09.438Z,77.97
2017-03-24T03:10:09.472Z,78.06
2017-03-24T03:11:09.503Z,78.16
2017-03-24T03:12:09.549Z,77.87
2017-03-24T03:13:09.576Z,77.87
2017-03-24T03:14:09.613Z,77.77
2017-03-24T03:15:09.643Z,77.87
2017-03-24T03:16:09.676Z,77.97
2017-03-24T03:17:09.709Z,77.97
2017-03-24T03:18:09.747Z,77.97
2017-03-24T03:19:10.081Z,77.68
2017-03-24T03:20:09.815Z,77.68
2017-03-24T03:21:09.847Z,77.58
2017-03-24T03:22:09.881Z,77.97
2017-03-24T03:23:09.929Z,77.97
2017-03-24T03:24:09.951Z,78.16
2017-03-24T03:25:09.987Z,78.16
2017-03-24T03:26:10.014Z,78.25
2017-03-24T03:27:10.051Z,77.97
2017-03-24T03:28:10.091Z,77.58
2017-03-24T03:29:10.122Z,77.68
2017-03-24T03:30:10.155Z,77.97
2017-03-24T03:31:10.188Z,77.77
2017-03-24T03:32:10.221Z,78.06
2017-03-24T03:33:10.258Z,77.83
2017-03-24T03:34:10.293Z,77.83
2017-03-24T03:35:10.324Z,77.64
2017-03-24T03:36:10.358Z,77.92
2017-03-24T03:37:10.398Z,77.92
2017-03-24T03:38:10.730Z,78.21
2017-03-24T03:39:10.762Z,78.21
2017-03-24T03:40:10.494Z,78.4
2017-03-24T03:41:10.527Z,78.4
2017-03-24T03:42:10.560Z,77.92
2017-03-24T03:43:10.597Z,78.59
2017-03-24T03:44:10.931Z,78.3
2017-03-24T03:45:10.666Z,78.3
2017-03-24T03:46:10.700Z,77.92
2017-03-24T03:47:10.731Z,78.4
2017-03-24T03:48:10.772Z,77.83
2017-03-24T03:49:10.803Z,78.5
2017-03-24T03:50:10.834Z,78.4
2017-03-24T03:51:10.869Z,78.4
2017-03-24T03:52:10.900Z,78.3
2017-03-24T03:53:10.933Z,78.59
2017-03-24T03:54:10.973Z,78.5
2017-03-24T03:55:11.004Z,78.59
2017-03-24T03:56:11.035Z,78.5
2017-03-24T03:57:11.072Z,78.59
2017-03-24T03:58:11.106Z,77.92
2017-03-24T03:59:11.172Z,77.83
2017-03-24T04:00:11.174Z,77.92
2017-03-24T04:01:11.210Z,78.02
2017-03-24T04:02:11.543Z,77.55
2017-03-24T04:03:11.275Z,77.73
2017-03-24T04:04:11.313Z,77.73
2017-03-24T04:05:11.350Z,77.92
2017-03-24T04:06:11.378Z,77.64
2017-03-24T04:07:11.722Z,77.55
2017-03-24T04:08:11.454Z,77.77
2017-03-24T04:09:11.484Z,77.45
2017-03-24T04:10:11.518Z,77.36
2017-03-24T04:11:11.546Z,77.77
2017-03-24T04:12:11.586Z,77.36
2017-03-24T04:13:11.619Z,77.39
2017-03-24T04:14:11.653Z,77.39
2017-03-24T04:15:11.687Z,77.39
2017-03-24T04:16:11.717Z,77.11
2017-03-24T04:17:11.753Z,77.07
2017-03-24T04:18:11.792Z,77.3
2017-03-24T04:19:11.822Z,77.49
2017-03-24T04:20:11.854Z,77.11
2017-03-24T04:21:11.891Z,76.97
2017-03-24T04:22:11.927Z,77.11
2017-03-24T04:23:11.955Z,77.01
2017-03-24T04:24:11.992Z,77.2
2017-03-24T04:25:12.024Z,77.17
2017-03-24T04:26:12.061Z,77.01
2017-03-24T04:27:12.091Z,77.3
2017-03-24T04:28:12.130Z,77.26
2017-03-24T04:29:12.163Z,77.36
2017-03-24T04:30:12.194Z,77.01
2017-03-24T04:31:12.230Z,77.2
2017-03-24T04:32:12.266Z,76.97
2017-03-24T04:33:12.297Z,77.2
2017-03-24T04:34:12.335Z,77.17
2017-03-24T04:35:12.369Z,77.39
2017-03-24T04:36:12.396Z,77.36
2017-03-24T04:37:12.434Z,77.3
2017-03-24T04:38:12.476Z,77.2
2017-03-24T04:39:12.510Z,77.2
2017-03-24T04:40:12.534Z,77.36
2017-03-24T04:41:12.579Z,77.07
2017-03-24T04:42:12.606Z,77.01
2017-03-24T04:43:12.685Z,77.07
2017-03-24T04:44:12.977Z,77.17
2017-03-24T04:45:12.704Z,76.97
2017-03-24T04:46:12.737Z,77.2
2017-03-24T04:47:12.778Z,77.17
2017-03-24T04:48:12.813Z,77.17
2017-03-24T04:49:12.847Z,76.97
2017-03-24T04:50:12.875Z,76.78
2017-03-24T04:51:12.908Z,77.07
2017-03-24T04:52:12.949Z,77.07
2017-03-24T04:53:12.980Z,77.55
2017-03-24T04:54:13.017Z,77.07
2017-03-24T04:55:13.046Z,77.45
2017-03-24T04:56:13.081Z,77.17
2017-03-24T04:57:13.114Z,77.36
2017-03-24T04:58:13.150Z,76.88
2017-03-24T04:59:13.187Z,77.64
2017-03-24T05:00:13.518Z,77.26
2017-03-24T05:01:13.249Z,77.07
2017-03-24T05:02:13.288Z,77.07
2017-03-24T05:03:13.319Z,77.26
2017-03-24T05:04:13.353Z,77.36
2017-03-24T05:05:13.384Z,77.36
2017-03-24T05:06:13.426Z,76.88
2017-03-24T05:07:13.455Z,77.36
2017-03-24T05:08:13.490Z,77.26
2017-03-24T05:09:13.522Z,77.45
2017-03-24T05:10:13.554Z,77.36
2017-03-24T05:11:13.592Z,77.64
2017-03-24T05:12:13.622Z,77.36
2017-03-24T05:13:13.658Z,77.36
2017-03-24T05:14:13.691Z,77.55
2017-03-24T05:15:13.726Z,77.64
2017-03-24T05:16:13.758Z,77.26
2017-03-24T05:17:13.791Z,77.36
2017-03-24T05:18:14.132Z,77.45
2017-03-24T05:19:13.867Z,77.36
2017-03-24T05:20:13.893Z,77.64
2017-03-24T05:21:13.929Z,77.83
2017-03-24T05:22:13.960Z,77.55
2017-03-24T05:23:13.997Z,77.64
2017-03-24T05:24:14.080Z,77.64
2017-03-24T05:25:14.061Z,77.73
2017-03-24T05:26:14.093Z,77.73
2017-03-24T05:27:14.129Z,77.73
2017-03-24T05:28:14.170Z,77.92
2017-03-24T05:29:14.203Z,77.73
2017-03-24T05:30:14.227Z,77.55
2017-03-24T05:31:14.565Z,77.92
2017-03-24T05:32:14.299Z,77.92
2017-03-24T05:33:14.335Z,77.64
2017-03-24T05:34:14.371Z,77.92
2017-03-24T05:35:14.400Z,77.92
2017-03-24T05:36:14.436Z,77.55
2017-03-24T05:37:14.467Z,77.92
2017-03-24T05:38:14.504Z,77.73
2017-03-24T05:39:14.540Z,77.83
2017-03-24T05:40:14.569Z,77.73
2017-03-24T05:41:14.604Z,77.55
2017-03-24T05:42:14.639Z,77.55
2017-03-24T05:43:14.671Z,78.11
2017-03-24T05:44:14.706Z,77.64
2017-03-24T05:45:14.738Z,77.92
2017-03-24T05:46:14.775Z,77.64
2017-03-24T05:47:14.807Z,77.45
2017-03-24T05:48:14.840Z,77.92
2017-03-24T05:49:14.878Z,77.64
2017-03-24T05:50:14.907Z,77.45
2017-03-24T05:51:14.946Z,77.45
2017-03-24T05:52:15.043Z,77.73
2017-03-24T05:53:15.311Z,77.36
2017-03-24T05:54:15.047Z,77.58
2017-03-24T05:55:15.082Z,76.97
2017-03-24T05:56:15.118Z,76.97
2017-03-24T05:57:15.155Z,77.3
2017-03-24T05:58:15.181Z,77.11
2017-03-24T05:59:15.219Z,77.2
2017-03-24T06:00:15.249Z,76.54
2017-03-24T06:01:15.290Z,76.82
2017-03-24T06:02:15.624Z,76.54
2017-03-24T06:03:15.406Z,76.54
2017-03-24T06:04:15.390Z,76.54
2017-03-24T06:05:15.725Z,76.73
2017-03-24T06:06:15.454Z,76.67
2017-03-24T06:07:15.490Z,76.39
2017-03-24T06:08:15.586Z,76.1
2017-03-24T06:09:15.869Z,76.29
2017-03-24T06:10:15.621Z,76.01
2017-03-24T06:11:15.646Z,75.81
2017-03-24T06:12:15.670Z,75.62
2017-03-24T06:13:15.698Z,75.53
2017-03-24T06:14:15.736Z,74.87
2017-03-24T06:15:15.775Z,75.15
2017-03-24T06:16:15.809Z,74.87
2017-03-24T06:17:15.840Z,74.77
2017-03-24T06:18:15.875Z,74.87
2017-03-24T06:19:15.906Z,74.96
2017-03-24T06:20:15.944Z,74.87
2017-03-24T06:21:15.977Z,74.67
2017-03-24T06:22:16.315Z,74.58
2017-03-24T06:23:16.047Z,74.48
2017-03-24T06:24:16.085Z,74.58
2017-03-24T06:25:16.120Z,74.67
2017-03-24T06:26:16.147Z,74.87
2017-03-24T06:27:16.188Z,74.87
2017-03-24T06:28:16.219Z,74.39
2017-03-24T06:29:16.254Z,74.2
2017-03-24T06:30:16.289Z,74.48
2017-03-24T06:31:16.334Z,74.29
2017-03-24T06:32:16.362Z,73.53
2017-03-24T06:33:16.432Z,74.39
2017-03-24T06:34:16.430Z,73.63
2017-03-24T06:35:16.467Z,74.2
2017-03-24T06:36:16.502Z,73.72
2017-03-24T06:37:16.533Z,73.82
2017-03-24T06:38:16.568Z,73.72
2017-03-24T06:39:16.604Z,73.72
2017-03-24T06:40:16.640Z,73.66
2017-03-24T06:41:16.674Z,73.85
2017-03-24T06:42:16.708Z,73.47
2017-03-24T06:43:16.749Z,73.1
2017-03-24T06:44:17.083Z,72.81
2017-03-24T06:45:16.812Z,73.19
2017-03-24T06:46:16.854Z,73.7
2017-03-24T06:47:17.200Z,73.51
2017-03-24T06:48:16.927Z,73.74
2017-03-24T06:49:17.259Z,73.55
2017-03-24T06:50:16.993Z,72.78
2017-03-24T06:51:17.029Z,72.72
2017-03-24T06:52:17.066Z,72.86
2017-03-24T06:53:17.103Z,73.33
2017-03-24T06:54:17.141Z,72.8
2017-03-24T06:55:17.176Z,72.17
2017-03-24T06:56:17.214Z,70.52
2017-03-24T06:57:17.253Z,68.16
2017-03-24T06:58:17.290Z,68.16
2017-03-24T06:59:17.631Z,68.1
2017-03-24T07:00:17.364Z,68.29
2017-03-24T07:01:17.705Z,67.18
2017-03-24T07:02:17.442Z,66.06
2017-03-24T07:03:17.479Z,65.58
2017-03-24T07:04:17.521Z,64.37
2017-03-24T07:05:17.557Z,63.39
2017-03-24T07:06:17.619Z,62.33
2017-03-24T07:07:17.633Z,62.14
2017-03-24T07:08:17.674Z,61.85
2017-03-24T07:09:17.712Z,62.33
2017-03-24T07:10:17.749Z,61.54
2017-03-24T07:11:17.784Z,62.01
2017-03-24T07:12:17.824Z,61.15
2017-03-24T07:13:17.868Z,61.63
2017-03-24T07:14:18.208Z,61.72
2017-03-24T07:15:17.940Z,61.72
2017-03-24T07:16:17.983Z,60.13
2017-03-24T07:17:18.021Z,59.17
2017-03-24T07:18:18.064Z,58.53
2017-03-24T07:19:18.100Z,57.86
2017-03-24T07:20:18.135Z,57.76
2017-03-24T07:21:18.175Z,57.38
2017-03-24T07:22:18.216Z,57.28
2017-03-24T07:23:18.257Z,57.6
2017-03-24T07:24:18.302Z,57.12
2017-03-24T07:25:18.339Z,57.06
2017-03-24T07:26:18.378Z,56.51
2017-03-24T07:27:18.416Z,56.05
2017-03-24T07:28:18.455Z,55.73
2017-03-24T07:29:18.501Z,55.08
2017-03-24T07:30:18.654Z,54.72
2017-03-24T07:31:18.603Z,53.23
2017-03-24T07:32:18.622Z,52.11
2017-03-24T07:33:18.661Z,50.98
2017-03-24T07:34:18.705Z,51
2017-03-24T07:35:18.743Z,49.19
2017-03-24T07:36:18.793Z,48.47
2017-03-24T07:37:18.831Z,47.5
2017-03-24T07:38:18.878Z,47.24
2017-03-24T07:39:18.923Z,45.14
2017-03-24T07:40:18.962Z,45.16
2017-03-24T07:41:19.005Z,43.92
2017-03-24T07:42:19.051Z,43.44
2017-03-24T07:43:19.103Z,42.97
2017-03-24T07:44:19.141Z,42.4
2017-03-24T07:45:19.181Z,41.14
2017-03-24T07:46:19.226Z,40.65
2017-03-24T07:47:19.577Z,40.53
2017-03-24T07:48:19.318Z,40.26
2017-03-24T07:49:19.360Z,39.59
2017-03-24T07:50:19.407Z,39.2
2017-03-24T07:51:19.452Z,37.85
2017-03-24T07:52:19.501Z,37.67
2017-03-24T07:53:19.540Z,36.6
2017-03-24T07:54:19.587Z,36.32
2017-03-24T07:55:19.631Z,35.85
2017-03-24T07:56:19.677Z,35.35
2017-03-24T07:57:19.730Z,35.17
2017-03-24T07:58:19.769Z,34.49
2017-03-24T07:59:19.813Z,34.01
2017-03-24T08:00:19.857Z,33.14
2017-03-24T08:01:19.911Z,32.36
2017-03-24T08:02:19.951Z,32.64
2017-03-24T08:03:19.992Z,32.24
2017-03-24T08:04:20.069Z,31.94
2017-03-24T08:05:20.088Z,31.84
2017-03-24T08:06:20.269Z,31.83
2017-03-24T08:07:20.179Z,31.83
2017-03-24T08:08:20.220Z,31.44
2017-03-24T08:09:20.273Z,31.25
2017-03-24T08:10:20.317Z,30.85
2017-03-24T08:11:20.361Z,30.86
2017-03-24T08:12:20.406Z,31.05
2017-03-24T08:13:20.492Z,30.08
2017-03-24T08:14:20.551Z,29.81
2017-03-24T08:15:20.545Z,29.53
2017-03-24T08:16:20.897Z,29.74
2017-03-24T08:17:20.642Z,29.16
2017-03-24T08:18:20.686Z,28.5
2017-03-24T08:19:20.734Z,27.33
2017-03-24T08:20:20.776Z,27.14
2017-03-24T08:21:20.826Z,27.42
2017-03-24T08:22:20.872Z,28.08
2017-03-24T08:23:20.918Z,27.98
2017-03-24T08:24:20.966Z,27.4
2017-03-24T08:25:21.007Z,27.32
2017-03-24T08:26:21.057Z,27.22
2017-03-24T08:27:21.157Z,26.17
2017-03-24T08:28:21.150Z,26.48
2017-03-24T08:29:21.200Z,26.28
2017-03-24T08:30:21.254Z,25.62
2017-03-24T08:31:21.427Z,25.34
2017-03-24T08:32:21.457Z,25.05
2017-03-24T08:33:21.404Z,24.67
2017-03-24T08:34:21.439Z,24.39
2017-03-24T08:35:21.487Z,23.8
2017-03-24T08:36:21.536Z,22.85
2017-03-24T08:37:21.579Z,22.75
2017-03-24T08:38:21.627Z,22.75
2017-03-24T08:39:21.672Z,22.55
2017-03-24T08:40:21.742Z,22.17
2017-03-24T08:41:21.773Z,22.56
2017-03-24T08:42:21.817Z,22.17
2017-03-24T08:43:21.870Z,20.72
2017-03-24T08:44:22.000Z,20.9
2017-03-24T08:45:21.962Z,20.89
2017-03-24T08:46:22.018Z,20.59
2017-03-24T08:47:22.061Z,20.76
2017-03-24T08:48:22.113Z,21.51
2017-03-24T08:49:22.157Z,21.91
2017-03-24T08:50:22.208Z,22.49
2017-03-24T08:51:22.255Z,21.62
2017-03-24T08:52:22.304Z,22.02
2017-03-24T08:53:22.655Z,21.82
2017-03-24T08:54:22.422Z,21.83
2017-03-24T08:55:22.448Z,22.12
2017-03-24T08:56:22.517Z,21.93
2017-03-24T08:57:22.548Z,21.55
2017-03-24T08:58:22.593Z,21.36
2017-03-24T08:59:22.661Z,20.87
2017-03-24T09:00:22.714Z,21.25
2017-03-24T09:01:22.742Z,21.25
2017-03-24T09:02:22.848Z,20.86
2017-03-24T09:03:22.839Z,20.96
2017-03-24T09:04:22.947Z,20.68
2017-03-24T09:05:22.941Z,21.16
2017-03-24T09:06:22.986Z,21.06
2017-03-24T09:07:23.036Z,20.68
2017-03-24T09:08:23.087Z,20.7
2017-03-24T09:09:23.142Z,20.01
2017-03-24T09:10:23.192Z,19.92
2017-03-24T09:11:23.664Z,20.01
2017-03-24T09:12:23.288Z,20
2017-03-24T09:13:23.387Z,20.28
2017-03-24T09:14:23.393Z,20.85
2017-03-24T09:15:23.482Z,20.74
2017-03-24T09:16:23.503Z,20.83
2017-03-24T09:17:23.554Z,20.34
2017-03-24T09:18:23.589Z,20.23
2017-03-24T09:19:23.645Z,20.4
2017-03-24T09:20:23.697Z,21.44
2017-03-24T09:21:23.747Z,22.38
2017-03-24T09:22:23.790Z,22.84
2017-03-24T09:23:23.859Z,23.22
2017-03-24T09:24:23.887Z,23.6
2017-03-24T09:25:23.937Z,24.18
2017-03-24T09:26:23.988Z,24.09
2017-03-24T09:27:24.041Z,23.9
2017-03-24T09:28:24.085Z,24.28
2017-03-24T09:29:24.169Z,24.67
2017-03-24T09:30:24.187Z,24.48
2017-03-24T09:31:24.236Z,24.87
2017-03-24T09:32:24.287Z,25.07
2017-03-24T09:33:24.333Z,25.07
2017-03-24T09:34:24.386Z,24.4
2017-03-24T09:35:24.437Z,24.49
2017-03-24T09:36:24.486Z,24.77
2017-03-24T09:37:24.535Z,24.86
2017-03-24T09:38:24.583Z,25.73
2017-03-24T09:39:24.631Z,25.34
2017-03-24T09:40:24.684Z,25.43
2017-03-24T09:41:24.734Z,25.51
2017-03-24T09:42:24.790Z,25.9
2017-03-24T09:43:24.833Z,25.98
2017-03-24T09:44:24.894Z,26.54
2017-03-24T09:45:24.936Z,27.22
2017-03-24T09:46:24.982Z,27.31
2017-03-24T09:47:25.036Z,27.5
2017-03-24T09:48:25.083Z,27.98
2017-03-24T09:49:25.134Z,27.89
2017-03-24T09:50:25.184Z,28.08
2017-03-24T09:51:25.231Z,27.23
2017-03-24T09:52:25.286Z,27.04
2017-03-24T09:53:25.334Z,27.12
2017-03-24T09:54:25.382Z,26.92
2017-03-24T09:55:25.434Z,27.97
2017-03-24T09:56:25.484Z,28.26
2017-03-24T09:57:25.534Z,28.74
2017-03-24T09:58:25.595Z,28.56
2017-03-24T09:59:25.672Z,28.29
2017-03-24T10:00:25.681Z,28.3
2017-03-24T10:01:25.732Z,28.03
2017-03-24T10:02:26.674Z,27.27
2017-03-24T10:03:25.835Z,26.02
2017-03-24T10:04:25.895Z,26.02
2017-03-24T10:05:25.939Z,26.1
2017-03-24T10:06:25.991Z,26.07
2017-03-24T10:07:26.042Z,26.93
2017-03-24T10:08:26.096Z,26.92
2017-03-24T10:09:26.142Z,27.09
2017-03-24T10:10:26.197Z,28.05
2017-03-24T10:11:26.247Z,27.97
2017-03-24T10:12:26.299Z,27.69
2017-03-24T10:13:26.352Z,27.97
2017-03-24T10:14:26.403Z,27.97
2017-03-24T10:15:26.451Z,27.22
2017-03-24T10:16:26.503Z,27.22
2017-03-24T10:17:26.556Z,27.22
2017-03-24T10:18:26.610Z,27.02
2017-03-24T10:19:26.683Z,25.87
2017-03-24T10:20:26.713Z,26.06
2017-03-24T10:21:26.768Z,26.53
2017-03-24T10:22:26.821Z,27.19
2017-03-24T10:23:26.873Z,27.17
2017-03-24T10:24:26.925Z,27.83
2017-03-24T10:25:26.972Z,28.22
2017-03-24T10:26:27.026Z,28.6
2017-03-24T10:27:27.082Z,28.12
2017-03-24T10:28:27.131Z,28.22
2017-03-24T10:29:27.176Z,28.3
2017-03-24T10:30:27.229Z,28.68
2017-03-24T10:31:27.281Z,28.86
2017-03-24T10:32:27.333Z,29.34
2017-03-24T10:33:27.381Z,29.72
2017-03-24T10:34:27.437Z,29.55
2017-03-24T10:35:27.489Z,28.68
2017-03-24T10:36:27.537Z,28.68
2017-03-24T10:37:27.589Z,28.49
2017-03-24T10:38:27.640Z,29.16
2017-03-24T10:39:27.692Z,29.45
2017-03-24T10:40:27.740Z,29.55
2017-03-24T10:41:27.803Z,28.59
2017-03-24T10:42:27.843Z,28.41
2017-03-24T10:43:27.903Z,28.68
2017-03-24T10:44:28.249Z,28.2
2017-03-24T10:45:27.998Z,27.92
2017-03-24T10:46:28.049Z,28.59
2017-03-24T10:47:28.100Z,28.6
2017-03-24T10:48:28.155Z,28.6
2017-03-24T10:49:28.205Z,28.7
2017-03-24T10:50:28.260Z,28.81
2017-03-24T10:51:28.305Z,28.61
2017-03-24T10:52:28.405Z,28.52
2017-03-24T10:53:28.409Z,28.04
2017-03-24T10:54:28.461Z,28.23
2017-03-24T10:55:28.520Z,28.23
2017-03-24T10:56:28.565Z,28.04
2017-03-24T10:57:28.622Z,28.04
2017-03-24T10:58:28.674Z,28.23
2017-03-24T10:59:28.721Z,28.23
2017-03-24T11:00:28.770Z,28.14
2017-03-24T11:01:28.824Z,28.15
2017-03-24T11:02:28.875Z,28.25
2017-03-24T11:03:28.926Z,27.86
2017-03-24T11:04:28.983Z,26.9
2017-03-24T11:05:29.031Z,26.6
2017-03-24T11:06:29.085Z,26.78
2017-03-24T11:07:29.129Z,27.26
2017-03-24T11:08:29.184Z,27.44
2017-03-24T11:09:29.232Z,27.81
2017-03-24T11:10:29.283Z,28.09
2017-03-24T11:11:29.331Z,28.28
2017-03-24T11:12:29.384Z,28.28
2017-03-24T11:13:29.428Z,28.46
2017-03-24T11:14:29.475Z,28.94
2017-03-24T11:15:29.525Z,29.63
2017-03-24T11:16:29.572Z,28.86
2017-03-24T11:17:29.624Z,28.57
2017-03-24T11:18:29.680Z,29.05
2017-03-24T11:19:29.718Z,29.53
2017-03-24T11:20:29.765Z,29.33
2017-03-24T11:21:29.814Z,29.42
2017-03-24T11:22:29.860Z,29.52
2017-03-24T11:23:30.243Z,29.72
2017-03-24T11:24:29.952Z,29.63
2017-03-24T11:25:30.008Z,29.72
2017-03-24T11:26:30.045Z,29.72
2017-03-24T11:27:30.089Z,29.61
2017-03-24T11:28:30.135Z,30
2017-03-24T11:29:30.487Z,29.71
2017-03-24T11:30:30.228Z,29.98
2017-03-24T11:31:30.274Z,30.55
2017-03-24T11:32:30.323Z,30.73
2017-03-24T11:33:30.361Z,31.12
2017-03-24T11:34:30.405Z,31.38
2017-03-24T11:35:30.448Z,31.58
2017-03-24T11:36:30.495Z,32.15
2017-03-24T11:37:30.536Z,32.34
2017-03-24T11:38:30.580Z,32.06
2017-03-24T11:39:30.623Z,32.54
2017-03-24T11:40:30.672Z,31.96
2017-03-24T11:41:30.707Z,32.15
2017-03-24T11:42:30.911Z,32.25
2017-03-24T11:43:30.800Z,32.73
2017-03-24T11:44:30.838Z,32.63
2017-03-24T11:45:30.883Z,33.03
2017-03-24T11:46:30.926Z,33.12
2017-03-24T11:47:30.970Z,32.47
2017-03-24T11:48:31.009Z,32.47
2017-03-24T11:49:31.058Z,32.28
2017-03-24T11:50:31.096Z,31.9
2017-03-24T11:51:31.141Z,31.99
2017-03-24T11:52:31.186Z,32.09
2017-03-24T11:53:31.226Z,32.36
2017-03-24T11:54:31.270Z,32.26
2017-03-24T11:55:31.310Z,32.73
2017-03-24T11:56:31.355Z,33.2
2017-03-24T11:57:31.395Z,33.2
2017-03-24T11:58:31.433Z,33.67
2017-03-24T11:59:31.479Z,33.48
2017-03-24T12:00:31.521Z,33.38
2017-03-24T12:01:31.559Z,33.67
2017-03-24T12:02:31.602Z,34.14
2017-03-24T12:03:31.660Z,34.34
2017-03-24T12:04:31.687Z,34.13
2017-03-24T12:05:31.728Z,34.32
2017-03-24T12:06:31.766Z,34.24
2017-03-24T12:07:31.833Z,34.34
2017-03-24T12:08:31.849Z,34.72
2017-03-24T12:09:31.893Z,34.72
2017-03-24T12:10:31.933Z,34.16
2017-03-24T12:11:31.970Z,34.06
2017-03-24T12:12:32.024Z,34.06
2017-03-24T12:13:32.096Z,33.97
2017-03-24T12:14:32.132Z,34.36
2017-03-24T12:15:32.134Z,34.06
2017-03-24T12:16:32.176Z,34.16
2017-03-24T12:17:32.217Z,34.26
2017-03-24T12:18:32.481Z,33.95
2017-03-24T12:19:32.297Z,34.34
2017-03-24T12:20:32.338Z,34.43
2017-03-24T12:21:32.380Z,34.53
2017-03-24T12:22:32.419Z,34.43
2017-03-24T12:23:32.460Z,34.43
2017-03-24T12:24:32.498Z,34.81
2017-03-24T12:25:32.541Z,34.43
2017-03-24T12:26:32.578Z,34.53
2017-03-24T12:27:32.617Z,34.72
2017-03-24T12:28:32.661Z,34.63
2017-03-24T12:29:32.700Z,34.63
2017-03-24T12:30:32.741Z,34.81
2017-03-24T12:31:32.783Z,35
2017-03-24T12:32:32.819Z,35
2017-03-24T12:33:32.858Z,34.83
2017-03-24T12:34:32.899Z,34.45
2017-03-24T12:35:32.941Z,34.64
2017-03-24T12:36:32.979Z,34.55
2017-03-24T12:37:33.025Z,34.83
2017-03-24T12:38:33.073Z,34.93
2017-03-24T12:39:33.109Z,35.02
2017-03-24T12:40:33.146Z,35.12
2017-03-24T12:41:33.182Z,35.02
2017-03-24T12:42:33.219Z,35.29
2017-03-24T12:43:33.265Z,35.58
2017-03-24T12:44:33.300Z,35.5
2017-03-24T12:45:33.336Z,35.77
2017-03-24T12:46:33.378Z,35.58
2017-03-24T12:47:33.423Z,35.98
2017-03-24T12:48:33.455Z,35.98
2017-03-24T12:49:33.497Z,35.69
2017-03-24T12:50:33.537Z,35.98
2017-03-24T12:51:33.576Z,36.08
2017-03-24T12:52:33.615Z,35.98
2017-03-24T12:53:33.654Z,36.17
2017-03-24T12:54:33.698Z,36.08
2017-03-24T12:55:33.734Z,36.08
2017-03-24T12:56:33.776Z,36.27
2017-03-24T12:57:33.814Z,35.88